sensor_id;sensor_type;location;lat;lon;timestamp;pressure;altitude;pressure_sealevel;temperature;humidity
45813;BME280;31519;45.408;10.962;2023-04-25T00:02:08;99961.13;;;18.20;59.72
45813;BME280;31519;45.408;10.962;2023-04-25T00:04:36;99962.47;;;18.33;59.18
45813;BME280;31519;45.408;10.962;2023-04-25T00:07:06;99970.41;;;18.22;59.83
45813;BME280;31519;45.408;10.962;2023-04-25T00:09:34;99973.63;;;18.35;61.10
45813;BME280;31519;45.408;10.962;2023-04-25T00:12:02;99983.53;;;18.57;60.70
45813;BME280;31519;45.408;10.962;2023-04-25T00:14:30;99975.22;;;18.39;62.56
45813;BME280;31519;45.408;10.962;2023-04-25T00:17:01;99969.47;;;18.41;64.26
45813;BME280;31519;45.408;10.962;2023-04-25T00:19:30;99966.34;;;18.39;65.24
45813;BME280;31519;45.408;10.962;2023-04-25T00:21:57;99961.53;;;18.22;65.82
45813;BME280;31519;45.408;10.962;2023-04-25T00:24:26;99967.91;;;18.06;66.50
45813;BME280;31519;45.408;10.962;2023-04-25T00:26:54;99965.69;;;18.15;66.81
45813;BME280;31519;45.408;10.962;2023-04-25T00:29:22;99958.16;;;17.95;68.43
45813;BME280;31519;45.408;10.962;2023-04-25T00:31:49;99951.84;;;18.13;67.38
45813;BME280;31519;45.408;10.962;2023-04-25T00:34:18;99948.00;;;17.85;67.57
45813;BME280;31519;45.408;10.962;2023-04-25T00:36:45;99954.41;;;17.73;68.21
45813;BME280;31519;45.408;10.962;2023-04-25T00:39:14;99943.06;;;17.90;67.70
45813;BME280;31519;45.408;10.962;2023-04-25T00:41:41;99937.44;;;18.02;67.19
45813;BME280;31519;45.408;10.962;2023-04-25T00:44:10;99940.91;;;18.03;66.98
45813;BME280;31519;45.408;10.962;2023-04-25T00:46:39;99939.41;;;18.05;66.70
45813;BME280;31519;45.408;10.962;2023-04-25T00:49:07;99935.63;;;17.80;66.99
45813;BME280;31519;45.408;10.962;2023-04-25T00:51:35;99931.09;;;17.88;66.62
45813;BME280;31519;45.408;10.962;2023-04-25T00:54:03;99929.47;;;17.80;66.79
45813;BME280;31519;45.408;10.962;2023-04-25T00:56:31;99927.47;;;17.73;66.60
45813;BME280;31519;45.408;10.962;2023-04-25T00:58:59;99921.03;;;17.81;65.83
45813;BME280;31519;45.408;10.962;2023-04-25T01:01:26;99925.06;;;17.98;64.96
45813;BME280;31519;45.408;10.962;2023-04-25T01:03:55;99928.16;;;17.96;64.30
45813;BME280;31519;45.408;10.962;2023-04-25T01:06:25;99929.00;;;18.04;64.71
45813;BME280;31519;45.408;10.962;2023-04-25T01:08:55;99926.34;;;18.07;65.06
45813;BME280;31519;45.408;10.962;2023-04-25T01:11:23;99924.00;;;18.06;64.68
45813;BME280;31519;45.408;10.962;2023-04-25T01:13:51;99914.84;;;17.81;64.44
45813;BME280;31519;45.408;10.962;2023-04-25T01:16:19;99924.22;;;17.90;64.49
45813;BME280;31519;45.408;10.962;2023-04-25T01:18:48;99911.16;;;17.62;63.80
45813;BME280;31519;45.408;10.962;2023-04-25T01:21:16;99911.81;;;17.82;63.03
45813;BME280;31519;45.408;10.962;2023-04-25T01:23:47;99912.75;;;17.67;63.40
45813;BME280;31519;45.408;10.962;2023-04-25T01:26:15;99913.84;;;17.92;62.79
45813;BME280;31519;45.408;10.962;2023-04-25T01:28:43;99913.28;;;18.09;62.51
45813;BME280;31519;45.408;10.962;2023-04-25T01:31:11;99916.53;;;17.92;61.96
45813;BME280;31519;45.408;10.962;2023-04-25T01:33:40;99910.78;;;17.94;61.90
45813;BME280;31519;45.408;10.962;2023-04-25T01:36:08;99908.75;;;18.17;61.20
45813;BME280;31519;45.408;10.962;2023-04-25T01:38:36;99913.97;;;18.03;60.66
45813;BME280;31519;45.408;10.962;2023-04-25T01:41:04;99919.88;;;18.15;60.30
45813;BME280;31519;45.408;10.962;2023-04-25T01:43:32;99912.59;;;18.20;60.09
45813;BME280;31519;45.408;10.962;2023-04-25T01:46:00;99914.72;;;18.00;60.12
45813;BME280;31519;45.408;10.962;2023-04-25T01:48:29;99919.16;;;18.19;60.01
45813;BME280;31519;45.408;10.962;2023-04-25T01:50:57;99916.03;;;18.16;60.06
45813;BME280;31519;45.408;10.962;2023-04-25T01:53:25;99911.13;;;18.26;59.11
45813;BME280;31519;45.408;10.962;2023-04-25T01:55:53;99915.22;;;18.12;58.93
45813;BME280;31519;45.408;10.962;2023-04-25T01:58:23;99907.41;;;18.00;59.34
45813;BME280;31519;45.408;10.962;2023-04-25T02:01:04;99905.88;;;18.03;58.66
45813;BME280;31519;45.408;10.962;2023-04-25T02:03:40;99902.66;;;18.24;58.21
45813;BME280;31519;45.408;10.962;2023-04-25T02:06:16;99884.78;;;18.08;58.27
45813;BME280;31519;45.408;10.962;2023-04-25T02:08:46;99888.41;;;18.23;57.56
45813;BME280;31519;45.408;10.962;2023-04-25T02:11:14;99882.25;;;18.26;58.04
45813;BME280;31519;45.408;10.962;2023-04-25T02:13:48;99878.91;;;18.36;57.68
45813;BME280;31519;45.408;10.962;2023-04-25T02:16:32;99864.56;;;18.29;57.00
45813;BME280;31519;45.408;10.962;2023-04-25T02:19:01;99871.06;;;18.24;57.16
45813;BME280;31519;45.408;10.962;2023-04-25T02:21:30;99864.31;;;18.41;56.99
45813;BME280;31519;45.408;10.962;2023-04-25T02:23:58;99855.81;;;18.42;56.52
45813;BME280;31519;45.408;10.962;2023-04-25T02:26:28;99857.03;;;18.45;56.60
45813;BME280;31519;45.408;10.962;2023-04-25T02:28:56;99865.59;;;18.17;56.92
45813;BME280;31519;45.408;10.962;2023-04-25T02:31:24;99860.66;;;18.23;57.05
45813;BME280;31519;45.408;10.962;2023-04-25T02:33:52;99865.13;;;18.48;56.16
45813;BME280;31519;45.408;10.962;2023-04-25T02:36:20;99871.25;;;18.42;56.04
45813;BME280;31519;45.408;10.962;2023-04-25T02:38:48;99875.00;;;18.34;55.86
45813;BME280;31519;45.408;10.962;2023-04-25T02:41:16;99879.91;;;18.25;56.44
45813;BME280;31519;45.408;10.962;2023-04-25T02:43:44;99869.00;;;18.10;57.95
45813;BME280;31519;45.408;10.962;2023-04-25T02:46:12;99856.28;;;18.11;57.34
45813;BME280;31519;45.408;10.962;2023-04-25T02:48:40;99837.53;;;18.22;56.04
45813;BME280;31519;45.408;10.962;2023-04-25T02:51:08;99832.97;;;17.89;56.25
45813;BME280;31519;45.408;10.962;2023-04-25T02:53:36;99822.13;;;17.82;56.00
45813;BME280;31519;45.408;10.962;2023-04-25T02:56:04;99821.78;;;18.24;54.79
45813;BME280;31519;45.408;10.962;2023-04-25T02:58:32;99826.44;;;18.27;54.46
45813;BME280;31519;45.408;10.962;2023-04-25T03:01:00;99834.19;;;18.32;54.46
45813;BME280;31519;45.408;10.962;2023-04-25T03:03:28;99824.16;;;18.32;54.21
45813;BME280;31519;45.408;10.962;2023-04-25T03:05:56;99824.56;;;18.34;53.84
45813;BME280;31519;45.408;10.962;2023-04-25T03:08:29;99823.38;;;18.28;53.87
45813;BME280;31519;45.408;10.962;2023-04-25T03:11:01;99820.59;;;18.21;53.67
45813;BME280;31519;45.408;10.962;2023-04-25T03:13:29;99821.09;;;18.34;53.59
45813;BME280;31519;45.408;10.962;2023-04-25T03:15:58;99831.47;;;18.32;52.84
45813;BME280;31519;45.408;10.962;2023-04-25T03:18:26;99840.69;;;18.27;53.11
45813;BME280;31519;45.408;10.962;2023-04-25T03:20:54;99842.59;;;18.27;53.61
45813;BME280;31519;45.408;10.962;2023-04-25T03:23:23;99860.06;;;18.43;53.89
45813;BME280;31519;45.408;10.962;2023-04-25T03:25:51;99860.03;;;18.36;53.89
45813;BME280;31519;45.408;10.962;2023-04-25T03:28:19;99864.22;;;18.34;54.88
45813;BME280;31519;45.408;10.962;2023-04-25T03:30:47;99860.72;;;18.30;54.77
45813;BME280;31519;45.408;10.962;2023-04-25T03:33:16;99858.75;;;18.23;54.87
45813;BME280;31519;45.408;10.962;2023-04-25T03:35:43;99854.13;;;18.24;55.00
45813;BME280;31519;45.408;10.962;2023-04-25T03:38:11;99849.03;;;18.15;55.27
45813;BME280;31519;45.408;10.962;2023-04-25T03:40:40;99849.38;;;18.10;55.91
45813;BME280;31519;45.408;10.962;2023-04-25T03:43:25;99848.22;;;18.11;56.06
45813;BME280;31519;45.408;10.962;2023-04-25T03:46:01;99852.81;;;18.10;55.59
45813;BME280;31519;45.408;10.962;2023-04-25T03:48:30;99849.22;;;17.96;55.72
45813;BME280;31519;45.408;10.962;2023-04-25T03:50:58;99845.38;;;17.97;55.16
45813;BME280;31519;45.408;10.962;2023-04-25T03:53:26;99842.88;;;17.78;55.96
45813;BME280;31519;45.408;10.962;2023-04-25T03:56:13;99840.88;;;17.75;56.38
45813;BME280;31519;45.408;10.962;2023-04-25T03:58:41;99852.16;;;17.84;56.55
45813;BME280;31519;45.408;10.962;2023-04-25T04:01:09;99850.16;;;17.77;56.69
45813;BME280;31519;45.408;10.962;2023-04-25T04:03:39;99856.34;;;17.78;57.03
45813;BME280;31519;45.408;10.962;2023-04-25T04:06:08;99859.81;;;17.78;57.19
45813;BME280;31519;45.408;10.962;2023-04-25T04:08:40;99858.47;;;17.65;57.69
45813;BME280;31519;45.408;10.962;2023-04-25T04:11:09;99866.03;;;17.86;57.13
45813;BME280;31519;45.408;10.962;2023-04-25T04:13:38;99859.38;;;17.76;57.32
45813;BME280;31519;45.408;10.962;2023-04-25T04:16:07;99867.88;;;17.78;56.98
45813;BME280;31519;45.408;10.962;2023-04-25T04:18:35;99861.34;;;17.49;57.91
45813;BME280;31519;45.408;10.962;2023-04-25T04:21:03;99859.03;;;17.51;57.50
45813;BME280;31519;45.408;10.962;2023-04-25T04:23:34;99863.13;;;17.42;57.75
45813;BME280;31519;45.408;10.962;2023-04-25T04:26:06;99862.81;;;17.47;56.91
45813;BME280;31519;45.408;10.962;2023-04-25T04:28:39;99856.69;;;17.76;55.69
45813;BME280;31519;45.408;10.962;2023-04-25T04:31:21;99860.34;;;17.91;55.54
45813;BME280;31519;45.408;10.962;2023-04-25T04:33:49;99842.88;;;17.78;55.19
45813;BME280;31519;45.408;10.962;2023-04-25T04:36:19;99837.34;;;17.67;55.99
45813;BME280;31519;45.408;10.962;2023-04-25T04:38:51;99841.44;;;17.57;55.05
45813;BME280;31519;45.408;10.962;2023-04-25T04:41:35;99842.50;;;17.49;55.38
45813;BME280;31519;45.408;10.962;2023-04-25T04:44:14;99848.44;;;17.62;55.24
45813;BME280;31519;45.408;10.962;2023-04-25T04:46:48;99861.03;;;17.88;54.88
45813;BME280;31519;45.408;10.962;2023-04-25T04:49:46;99875.84;;;17.67;55.45
45813;BME280;31519;45.408;10.962;2023-04-25T04:52:30;99873.41;;;17.92;54.92
45813;BME280;31519;45.408;10.962;2023-04-25T04:55:33;99889.19;;;17.90;55.02
45813;BME280;31519;45.408;10.962;2023-04-25T04:58:24;99904.56;;;17.90;55.08
45813;BME280;31519;45.408;10.962;2023-04-25T05:01:18;99926.69;;;17.73;55.39
45813;BME280;31519;45.408;10.962;2023-04-25T05:04:01;99956.16;;;17.62;55.62
45813;BME280;31519;45.408;10.962;2023-04-25T05:06:42;99971.00;;;17.79;54.96
45813;BME280;31519;45.408;10.962;2023-04-25T05:09:14;99981.19;;;17.62;54.92
45813;BME280;31519;45.408;10.962;2023-04-25T05:12:00;100021.91;;;17.12;58.01
45813;BME280;31519;45.408;10.962;2023-04-25T05:14:48;100045.38;;;15.80;65.23
45813;BME280;31519;45.408;10.962;2023-04-25T05:17:50;100056.25;;;14.66;66.20
45813;BME280;31519;45.408;10.962;2023-04-25T05:20:21;100031.22;;;13.82;67.55
45813;BME280;31519;45.408;10.962;2023-04-25T05:23:01;100020.03;;;13.92;67.63
45813;BME280;31519;45.408;10.962;2023-04-25T05:26:04;100025.53;;;13.47;68.88
45813;BME280;31519;45.408;10.962;2023-04-25T05:28:43;100030.31;;;13.29;70.87
45813;BME280;31519;45.408;10.962;2023-04-25T05:31:23;100038.78;;;13.31;71.90
45813;BME280;31519;45.408;10.962;2023-04-25T05:34:00;100034.47;;;13.51;74.18
45813;BME280;31519;45.408;10.962;2023-04-25T05:36:44;100016.50;;;13.51;76.08
45813;BME280;31519;45.408;10.962;2023-04-25T05:39:17;100023.31;;;13.73;76.05
45813;BME280;31519;45.408;10.962;2023-04-25T05:42:03;100003.75;;;13.97;75.35
45813;BME280;31519;45.408;10.962;2023-04-25T05:44:53;99988.88;;;14.11;75.26
45813;BME280;31519;45.408;10.962;2023-04-25T05:47:31;99968.25;;;14.00;76.47
45813;BME280;31519;45.408;10.962;2023-04-25T05:50:10;99969.88;;;14.16;75.50
45813;BME280;31519;45.408;10.962;2023-04-25T05:52:48;99988.22;;;14.30;74.98
45813;BME280;31519;45.408;10.962;2023-04-25T05:55:35;99994.97;;;14.24;76.06
45813;BME280;31519;45.408;10.962;2023-04-25T05:58:18;99982.38;;;14.12;77.72
45813;BME280;31519;45.408;10.962;2023-04-25T06:00:46;99977.28;;;14.47;76.27
45813;BME280;31519;45.408;10.962;2023-04-25T06:03:13;99982.72;;;14.51;76.69
45813;BME280;31519;45.408;10.962;2023-04-25T06:05:47;99976.97;;;14.64;77.58
45813;BME280;31519;45.408;10.962;2023-04-25T06:08:16;99978.88;;;14.64;78.89
45813;BME280;31519;45.408;10.962;2023-04-25T06:10:44;99977.09;;;14.84;77.59
45813;BME280;31519;45.408;10.962;2023-04-25T06:13:12;99976.38;;;14.87;78.32
45813;BME280;31519;45.408;10.962;2023-04-25T06:15:40;99978.53;;;15.13;77.31
45813;BME280;31519;45.408;10.962;2023-04-25T06:18:08;99987.19;;;14.90;79.43
45813;BME280;31519;45.408;10.962;2023-04-25T06:20:36;99991.72;;;15.02;79.10
45813;BME280;31519;45.408;10.962;2023-04-25T06:23:04;99988.06;;;15.10;78.04
45813;BME280;31519;45.408;10.962;2023-04-25T06:25:51;99990.25;;;15.20;78.73
45813;BME280;31519;45.408;10.962;2023-04-25T06:28:21;99979.78;;;15.15;80.49
45813;BME280;31519;45.408;10.962;2023-04-25T06:30:50;99979.06;;;15.18;81.41
45813;BME280;31519;45.408;10.962;2023-04-25T06:33:19;99973.78;;;15.22;82.11
45813;BME280;31519;45.408;10.962;2023-04-25T06:35:49;99974.56;;;15.38;80.54
45813;BME280;31519;45.408;10.962;2023-04-25T06:38:22;99968.94;;;15.43;81.03
45813;BME280;31519;45.408;10.962;2023-04-25T06:40:52;99968.75;;;15.36;81.74
45813;BME280;31519;45.408;10.962;2023-04-25T06:43:20;99970.28;;;15.68;79.70
45813;BME280;31519;45.408;10.962;2023-04-25T06:46:03;99963.25;;;15.79;77.19
45813;BME280;31519;45.408;10.962;2023-04-25T06:48:35;99961.50;;;16.06;74.44
45813;BME280;31519;45.408;10.962;2023-04-25T06:51:05;99955.69;;;16.23;73.36
45813;BME280;31519;45.408;10.962;2023-04-25T06:53:34;99946.94;;;16.07;73.71
45813;BME280;31519;45.408;10.962;2023-04-25T06:56:04;99934.69;;;16.29;72.04
45813;BME280;31519;45.408;10.962;2023-04-25T06:58:50;99930.53;;;16.31;71.33
45813;BME280;31519;45.408;10.962;2023-04-25T07:01:30;99923.88;;;16.45;70.27
45813;BME280;31519;45.408;10.962;2023-04-25T07:04:00;99928.63;;;16.55;68.92
45813;BME280;31519;45.408;10.962;2023-04-25T07:06:32;99932.28;;;16.85;67.47
45813;BME280;31519;45.408;10.962;2023-04-25T07:09:00;99933.34;;;16.80;67.40
45813;BME280;31519;45.408;10.962;2023-04-25T07:11:28;99925.78;;;16.63;66.90
45813;BME280;31519;45.408;10.962;2023-04-25T07:13:56;99925.88;;;16.51;67.87
45813;BME280;31519;45.408;10.962;2023-04-25T07:16:24;99935.31;;;16.61;65.97
45813;BME280;31519;45.408;10.962;2023-04-25T07:18:52;99939.91;;;16.41;66.86
45813;BME280;31519;45.408;10.962;2023-04-25T07:21:20;99944.09;;;16.38;66.96
45813;BME280;31519;45.408;10.962;2023-04-25T07:23:50;99943.63;;;15.94;67.14
45813;BME280;31519;45.408;10.962;2023-04-25T07:26:24;99928.19;;;15.72;68.52
45813;BME280;31519;45.408;10.962;2023-04-25T07:29:15;99918.09;;;15.85;70.12
45813;BME280;31519;45.408;10.962;2023-04-25T07:31:43;99923.59;;;15.92;70.41
45813;BME280;31519;45.408;10.962;2023-04-25T07:34:11;99932.78;;;15.91;70.01
45813;BME280;31519;45.408;10.962;2023-04-25T07:36:39;99933.84;;;15.86;70.49
45813;BME280;31519;45.408;10.962;2023-04-25T07:39:07;99924.03;;;15.75;70.85
45813;BME280;31519;45.408;10.962;2023-04-25T07:41:39;99930.41;;;15.51;71.38
45813;BME280;31519;45.408;10.962;2023-04-25T07:44:10;99926.19;;;15.34;71.85
45813;BME280;31519;45.408;10.962;2023-04-25T07:46:38;99915.41;;;15.66;72.60
45813;BME280;31519;45.408;10.962;2023-04-25T07:49:07;99913.53;;;15.85;70.90
45813;BME280;31519;45.408;10.962;2023-04-25T07:51:36;99902.88;;;15.73;71.65
45813;BME280;31519;45.408;10.962;2023-04-25T07:54:09;99888.38;;;15.59;70.39
45813;BME280;31519;45.408;10.962;2023-04-25T07:56:43;99884.06;;;15.54;71.02
45813;BME280;31519;45.408;10.962;2023-04-25T07:59:20;99890.94;;;15.36;71.44
45813;BME280;31519;45.408;10.962;2023-04-25T08:01:49;99903.34;;;15.25;71.12
45813;BME280;31519;45.408;10.962;2023-04-25T08:04:19;99917.66;;;15.64;68.66
45813;BME280;31519;45.408;10.962;2023-04-25T08:06:52;99918.94;;;15.89;67.66
45813;BME280;31519;45.408;10.962;2023-04-25T08:09:28;99914.28;;;15.86;67.90
45813;BME280;31519;45.408;10.962;2023-04-25T08:11:57;99915.41;;;16.23;64.09
45813;BME280;31519;45.408;10.962;2023-04-25T08:14:30;99904.81;;;16.53;65.61
45813;BME280;31519;45.408;10.962;2023-04-25T08:17:04;99913.31;;;16.78;64.37
45813;BME280;31519;45.408;10.962;2023-04-25T08:19:38;99919.31;;;16.91;64.41
45813;BME280;31519;45.408;10.962;2023-04-25T08:22:10;99916.63;;;16.68;62.51
45813;BME280;31519;45.408;10.962;2023-04-25T08:24:48;99931.59;;;16.69;63.42
45813;BME280;31519;45.408;10.962;2023-04-25T08:27:20;99938.97;;;16.72;63.32
45813;BME280;31519;45.408;10.962;2023-04-25T08:29:48;99949.47;;;17.26;61.77
45813;BME280;31519;45.408;10.962;2023-04-25T08:32:18;99958.28;;;17.49;60.93
45813;BME280;31519;45.408;10.962;2023-04-25T08:35:01;99961.44;;;17.81;59.44
45813;BME280;31519;45.408;10.962;2023-04-25T08:37:29;99966.44;;;18.12;59.86
45813;BME280;31519;45.408;10.962;2023-04-25T08:40:01;99969.00;;;18.02;57.44
45813;BME280;31519;45.408;10.962;2023-04-25T08:42:42;99967.09;;;18.02;58.81
45813;BME280;31519;45.408;10.962;2023-04-25T08:45:12;99972.28;;;18.18;56.72
45813;BME280;31519;45.408;10.962;2023-04-25T08:47:42;99966.66;;;18.30;56.59
45813;BME280;31519;45.408;10.962;2023-04-25T08:50:12;99975.97;;;18.36;55.69
45813;BME280;31519;45.408;10.962;2023-04-25T08:52:43;99976.34;;;18.68;55.60
45813;BME280;31519;45.408;10.962;2023-04-25T08:55:12;99970.09;;;18.61;53.93
45813;BME280;31519;45.408;10.962;2023-04-25T08:57:41;99975.63;;;18.75;53.32
45813;BME280;31519;45.408;10.962;2023-04-25T09:00:11;99977.56;;;18.74;52.53
45813;BME280;31519;45.408;10.962;2023-04-25T09:02:42;99969.28;;;18.97;51.66
45813;BME280;31519;45.408;10.962;2023-04-25T09:05:12;99972.84;;;19.08;51.42
45813;BME280;31519;45.408;10.962;2023-04-25T09:07:41;99966.84;;;19.29;51.20
45813;BME280;31519;45.408;10.962;2023-04-25T09:10:09;99974.44;;;19.16;52.23
45813;BME280;31519;45.408;10.962;2023-04-25T09:12:38;99959.03;;;19.20;51.16
45813;BME280;31519;45.408;10.962;2023-04-25T09:15:09;99971.72;;;19.13;51.22
45813;BME280;31519;45.408;10.962;2023-04-25T09:18:12;99970.84;;;19.45;50.14
45813;BME280;31519;45.408;10.962;2023-04-25T09:20:43;99978.97;;;19.53;50.51
45813;BME280;31519;45.408;10.962;2023-04-25T09:23:14;99979.34;;;19.48;49.49
45813;BME280;31519;45.408;10.962;2023-04-25T09:25:42;99980.78;;;19.38;49.66
45813;BME280;31519;45.408;10.962;2023-04-25T09:28:10;99973.38;;;19.82;48.72
45813;BME280;31519;45.408;10.962;2023-04-25T09:30:38;99972.31;;;20.01;48.55
45813;BME280;31519;45.408;10.962;2023-04-25T09:33:13;99978.97;;;20.28;48.40
45813;BME280;31519;45.408;10.962;2023-04-25T09:35:47;99975.09;;;20.19;46.70
45813;BME280;31519;45.408;10.962;2023-04-25T09:38:41;99977.00;;;20.22;48.17
45813;BME280;31519;45.408;10.962;2023-04-25T09:41:15;99988.03;;;20.89;47.33
45813;BME280;31519;45.408;10.962;2023-04-25T09:43:49;99984.94;;;20.84;47.28
45813;BME280;31519;45.408;10.962;2023-04-25T09:46:20;99983.31;;;20.51;48.25
45813;BME280;31519;45.408;10.962;2023-04-25T09:48:55;99983.31;;;20.58;48.38
45813;BME280;31519;45.408;10.962;2023-04-25T09:51:34;99985.28;;;20.68;46.74
45813;BME280;31519;45.408;10.962;2023-04-25T09:54:02;99987.28;;;21.42;46.48
45813;BME280;31519;45.408;10.962;2023-04-25T09:56:47;99992.31;;;20.94;46.06
45813;BME280;31519;45.408;10.962;2023-04-25T09:59:15;99988.63;;;20.26;47.81
45813;BME280;31519;45.408;10.962;2023-04-25T10:01:44;99995.44;;;21.24;47.58
45813;BME280;31519;45.408;10.962;2023-04-25T10:04:22;99987.69;;;21.30;47.13
45813;BME280;31519;45.408;10.962;2023-04-25T10:07:13;99990.31;;;21.83;45.96
45813;BME280;31519;45.408;10.962;2023-04-25T10:09:44;99987.94;;;22.02;44.71
45813;BME280;31519;45.408;10.962;2023-04-25T10:12:15;99994.63;;;21.09;47.48
45813;BME280;31519;45.408;10.962;2023-04-25T10:14:44;99993.88;;;21.16;48.18
45813;BME280;31519;45.408;10.962;2023-04-25T10:17:12;99984.47;;;21.98;46.21
45813;BME280;31519;45.408;10.962;2023-04-25T10:19:39;99985.53;;;22.95;45.16
45813;BME280;31519;45.408;10.962;2023-04-25T10:22:11;99986.50;;;22.60;45.56
45813;BME280;31519;45.408;10.962;2023-04-25T10:24:40;99983.75;;;21.80;46.66
45813;BME280;31519;45.408;10.962;2023-04-25T10:27:08;99986.06;;;21.85;46.60
45813;BME280;31519;45.408;10.962;2023-04-25T10:29:36;99982.63;;;21.53;45.47
45813;BME280;31519;45.408;10.962;2023-04-25T10:32:04;99990.75;;;21.07;46.97
45813;BME280;31519;45.408;10.962;2023-04-25T10:34:39;99976.84;;;20.94;47.35
45813;BME280;31519;45.408;10.962;2023-04-25T10:37:09;99987.66;;;21.40;46.01
45813;BME280;31519;45.408;10.962;2023-04-25T10:39:40;99995.03;;;21.11;46.88
45813;BME280;31519;45.408;10.962;2023-04-25T10:42:09;99993.69;;;22.22;45.08
45813;BME280;31519;45.408;10.962;2023-04-25T10:44:37;99994.25;;;21.11;45.66
45813;BME280;31519;45.408;10.962;2023-04-25T10:47:06;99999.25;;;21.09;45.28
45813;BME280;31519;45.408;10.962;2023-04-25T10:49:35;99988.31;;;22.04;44.09
45813;BME280;31519;45.408;10.962;2023-04-25T10:52:24;99991.69;;;22.40;43.56
45813;BME280;31519;45.408;10.962;2023-04-25T10:54:53;99999.44;;;22.35;43.31
45813;BME280;31519;45.408;10.962;2023-04-25T10:57:41;100003.63;;;22.53;43.93
45813;BME280;31519;45.408;10.962;2023-04-25T11:02:41;99999.13;;;22.22;44.18
45813;BME280;31519;45.408;10.962;2023-04-25T11:05:10;100015.50;;;20.81;45.99
45813;BME280;31519;45.408;10.962;2023-04-25T11:07:50;100003.53;;;21.03;46.54
45813;BME280;31519;45.408;10.962;2023-04-25T11:10:33;99994.47;;;22.19;45.13
45813;BME280;31519;45.408;10.962;2023-04-25T11:13:05;99999.75;;;22.47;44.00
45813;BME280;31519;45.408;10.962;2023-04-25T11:15:32;100001.47;;;22.09;44.76
45813;BME280;31519;45.408;10.962;2023-04-25T11:18:00;100007.00;;;22.75;43.15
45813;BME280;31519;45.408;10.962;2023-04-25T11:20:29;99991.06;;;23.32;42.27
45813;BME280;31519;45.408;10.962;2023-04-25T11:22:57;99994.94;;;22.03;44.22
45813;BME280;31519;45.408;10.962;2023-04-25T11:25:25;99994.09;;;22.21;43.53
45813;BME280;31519;45.408;10.962;2023-04-25T11:27:54;99986.28;;;23.84;41.88
45813;BME280;31519;45.408;10.962;2023-04-25T11:30:24;99998.69;;;22.96;42.88
45813;BME280;31519;45.408;10.962;2023-04-25T11:32:52;99986.44;;;22.74;42.44
45813;BME280;31519;45.408;10.962;2023-04-25T11:35:20;99989.50;;;22.83;42.40
45813;BME280;31519;45.408;10.962;2023-04-25T11:37:51;100002.47;;;23.13;40.34
45813;BME280;31519;45.408;10.962;2023-04-25T11:40:18;99995.41;;;22.71;41.69
45813;BME280;31519;45.408;10.962;2023-04-25T11:42:47;99993.94;;;22.52;42.30
45813;BME280;31519;45.408;10.962;2023-04-25T11:45:15;99990.78;;;23.16;41.96
45813;BME280;31519;45.408;10.962;2023-04-25T11:47:43;99986.47;;;22.71;42.84
45813;BME280;31519;45.408;10.962;2023-04-25T11:50:10;99987.63;;;23.25;42.84
45813;BME280;31519;45.408;10.962;2023-04-25T11:52:40;99986.88;;;22.66;43.27
45813;BME280;31519;45.408;10.962;2023-04-25T11:55:08;99995.66;;;22.91;43.61
45813;BME280;31519;45.408;10.962;2023-04-25T11:57:38;99997.31;;;22.74;43.04
45813;BME280;31519;45.408;10.962;2023-04-25T12:00:10;100001.09;;;22.91;42.72
45813;BME280;31519;45.408;10.962;2023-04-25T12:02:50;99995.22;;;22.23;44.40
45813;BME280;31519;45.408;10.962;2023-04-25T12:05:18;99986.63;;;23.01;42.36
45813;BME280;31519;45.408;10.962;2023-04-25T12:08:09;99989.50;;;22.03;44.43
45813;BME280;31519;45.408;10.962;2023-04-25T12:10:38;99977.75;;;22.35;44.28
45813;BME280;31519;45.408;10.962;2023-04-25T12:13:20;99989.31;;;23.08;43.13
45813;BME280;31519;45.408;10.962;2023-04-25T12:15:48;99988.69;;;22.10;44.15
45813;BME280;31519;45.408;10.962;2023-04-25T12:18:20;99983.34;;;21.75;45.20
45813;BME280;31519;45.408;10.962;2023-04-25T12:20:48;99974.50;;;21.53;45.44
45813;BME280;31519;45.408;10.962;2023-04-25T12:23:16;99981.44;;;21.72;43.83
45813;BME280;31519;45.408;10.962;2023-04-25T12:25:44;99978.78;;;21.33;44.55
45813;BME280;31519;45.408;10.962;2023-04-25T12:33:22;100005.81;;;20.83;44.94
45813;BME280;31519;45.408;10.962;2023-04-25T12:35:49;100014.38;;;21.13;45.51
45813;BME280;31519;45.408;10.962;2023-04-25T12:38:24;100002.72;;;20.70;46.95
45813;BME280;31519;45.408;10.962;2023-04-25T12:40:53;100013.56;;;20.85;46.61
45813;BME280;31519;45.408;10.962;2023-04-25T12:43:21;100023.91;;;20.58;47.67
45813;BME280;31519;45.408;10.962;2023-04-25T12:45:49;100031.72;;;20.81;48.29
45813;BME280;31519;45.408;10.962;2023-04-25T12:48:18;100025.41;;;20.34;49.81
45813;BME280;31519;45.408;10.962;2023-04-25T12:50:47;100029.97;;;20.26;50.55
45813;BME280;31519;45.408;10.962;2023-04-25T12:53:21;100026.16;;;20.31;50.40
45813;BME280;31519;45.408;10.962;2023-04-25T12:55:50;100029.56;;;19.52;54.81
45813;BME280;31519;45.408;10.962;2023-04-25T12:58:18;100033.63;;;19.83;55.91
45813;BME280;31519;45.408;10.962;2023-04-25T13:00:47;100042.56;;;19.43;58.31
45813;BME280;31519;45.408;10.962;2023-04-25T13:03:15;100052.19;;;18.96;63.70
45813;BME280;31519;45.408;10.962;2023-04-25T13:05:44;100065.28;;;18.98;67.57
45813;BME280;31519;45.408;10.962;2023-04-25T13:08:12;100076.34;;;18.86;70.53
45813;BME280;31519;45.408;10.962;2023-04-25T13:10:39;100082.09;;;18.51;69.14
45813;BME280;31519;45.408;10.962;2023-04-25T13:13:07;100078.25;;;18.82;68.85
45813;BME280;31519;45.408;10.962;2023-04-25T13:15:35;100091.63;;;18.75;71.21
45813;BME280;31519;45.408;10.962;2023-04-25T13:18:04;100081.59;;;18.42;70.65
45813;BME280;31519;45.408;10.962;2023-04-25T13:20:35;100087.81;;;18.46;70.33